DLH567 YSSY-SAEZ
Flight info
| Callsign | DLH567 |
|---|---|
| Flight time | N/A |
| Altitude | 33000 |
| Route | WOL DCT TONIM DCT BOTGU/N0486F350 DCT 47S60 DCT 54S167E 68S174W/N0484F370 71S166W 75S132W 73S100W/N0483F390 DCT GRA UT662 ASKAS/N0486F410 UT662 DIL UZ117 GBE GBE7U |
| Aircraft | A359/H-SDE2E3GHIJ3J4J5LM1ORWXY/LB1D1 |
Departure
| Time | N/A |
|---|---|
| Airport | Sydney Kingsford Smith International Airport (YSSY) |
Arrival
| Time | 2026-05-06 14:45 |
|---|---|
| Airport | Ezeiza International Airport - Ministro Pistarini (SAEZ) |
| Time | Latitude | Longitude | Altitude | Speed | Heading |
|---|---|---|---|---|---|
| 2026-05-06 13:57 | -39.27209 | -59.86474 | 32978 ft | 465 kts | 2° |
| 2026-05-06 13:58 | -39.20796 | -59.85063 | 32978 ft | 467 kts | 2° |
| 2026-05-06 13:58 | -39.14371 | -59.83651 | 32975 ft | 469 kts | 2° |
| 2026-05-06 13:59 | -39.07910 | -59.82237 | 32974 ft | 471 kts | 2° |
| 2026-05-06 13:59 | -39.01443 | -59.80808 | 32970 ft | 472 kts | 2° |
| 2026-05-06 14:00 | -38.95003 | -59.79393 | 32982 ft | 473 kts | 1° |
| 2026-05-06 14:00 | -38.88499 | -59.77982 | 32971 ft | 474 kts | 1° |
| 2026-05-06 14:01 | -38.81990 | -59.76565 | 32974 ft | 473 kts | 0° |
| 2026-05-06 14:01 | -38.75522 | -59.75156 | 32971 ft | 474 kts | 0° |
| 2026-05-06 14:02 | -38.69019 | -59.73742 | 32971 ft | 473 kts | 0° |
| 2026-05-06 14:02 | -38.62526 | -59.72332 | 32973 ft | 473 kts | 0° |
| 2026-05-06 14:03 | -38.56032 | -59.70921 | 32971 ft | 472 kts | 0° |
| 2026-05-06 14:03 | -38.49549 | -59.69519 | 32961 ft | 472 kts | 0° |
| 2026-05-06 14:04 | -38.43083 | -59.68114 | 32964 ft | 471 kts | 0° |
| 2026-05-06 14:04 | -38.36695 | -59.66747 | 32966 ft | 468 kts | 0° |
| 2026-05-06 14:05 | -38.30262 | -59.65120 | 32962 ft | 478 kts | 7° |
| 2026-05-06 14:05 | -38.23856 | -59.62700 | 32965 ft | 480 kts | 8° |
| 2026-05-06 14:06 | -38.17492 | -59.60152 | 32955 ft | 478 kts | 9° |
| 2026-05-06 14:06 | -38.11163 | -59.57638 | 32959 ft | 478 kts | 9° |
| 2026-05-06 14:07 | -38.04792 | -59.55101 | 32955 ft | 481 kts | 9° |
| 2026-05-06 14:07 | -37.98378 | -59.52560 | 32956 ft | 483 kts | 9° |
| 2026-05-06 14:08 | -37.91956 | -59.50030 | 32955 ft | 484 kts | 9° |
| 2026-05-06 14:08 | -37.85560 | -59.47518 | 32947 ft | 485 kts | 9° |
| 2026-05-06 14:09 | -37.79109 | -59.44982 | 32946 ft | 486 kts | 9° |
| 2026-05-06 14:09 | -37.72625 | -59.42437 | 32959 ft | 488 kts | 9° |
| 2026-05-06 14:10 | -37.66121 | -59.39892 | 32952 ft | 490 kts | 8° |
| 2026-05-06 14:10 | -37.59603 | -59.37350 | 32946 ft | 490 kts | 8° |
| 2026-05-06 14:11 | -37.53078 | -59.34825 | 32938 ft | 493 kts | 8° |
| 2026-05-06 14:11 | -37.46569 | -59.32266 | 32924 ft | 492 kts | 8° |
| 2026-05-06 14:12 | -37.40051 | -59.29725 | 32915 ft | 489 kts | 8° |
| 2026-05-06 14:12 | -37.33531 | -59.27195 | 32911 ft | 490 kts | 8° |
| 2026-05-06 14:13 | -37.26998 | -59.24683 | 32911 ft | 490 kts | 8° |
| 2026-05-06 14:13 | -37.20554 | -59.21871 | 32908 ft | 498 kts | 13° |
| 2026-05-06 14:14 | -37.14125 | -59.18524 | 32879 ft | 500 kts | 14° |
| 2026-05-06 14:14 | -37.07719 | -59.15130 | 32894 ft | 501 kts | 13° |
| 2026-05-06 14:15 | -37.01314 | -59.11763 | 32914 ft | 502 kts | 13° |
| 2026-05-06 14:15 | -36.94880 | -59.08392 | 32920 ft | 502 kts | 13° |
| 2026-05-06 14:16 | -36.88444 | -59.04991 | 32932 ft | 504 kts | 13° |
| 2026-05-06 14:16 | -36.82010 | -59.01604 | 32927 ft | 504 kts | 13° |
| 2026-05-06 14:17 | -36.76620 | -58.98782 | 32925 ft | 505 kts | 13° |
| 2026-05-06 14:17 | -36.70122 | -58.95415 | 32923 ft | 506 kts | 13° |
| 2026-05-06 14:18 | -36.63618 | -58.92025 | 32923 ft | 505 kts | 13° |
| 2026-05-06 14:18 | -36.57159 | -58.88665 | 32921 ft | 506 kts | 13° |
| 2026-05-06 14:19 | -36.50659 | -58.85287 | 32915 ft | 506 kts | 13° |
| 2026-05-06 14:19 | -36.44149 | -58.81913 | 32919 ft | 505 kts | 13° |
| 2026-05-06 14:20 | -36.37702 | -58.78575 | 32917 ft | 504 kts | 13° |
| 2026-05-06 14:20 | -36.31220 | -58.75228 | 32914 ft | 504 kts | 13° |
| 2026-05-06 14:21 | -36.24744 | -58.71886 | 32571 ft | 500 kts | 13° |
| 2026-05-06 14:21 | -36.21549 | -58.70242 | 31973 ft | 497 kts | 13° |
| 2026-05-06 14:21 | -36.18337 | -58.68594 | 31079 ft | 501 kts | 13° |
| 2026-05-06 14:22 | -36.15106 | -58.66932 | 30220 ft | 503 kts | 14° |
| 2026-05-06 14:22 | -36.11900 | -58.65285 | 29287 ft | 505 kts | 14° |
| 2026-05-06 14:22 | -36.08663 | -58.63623 | 28617 ft | 501 kts | 14° |
| 2026-05-06 14:22 | -36.05462 | -58.61986 | 28011 ft | 496 kts | 14° |
| 2026-05-06 14:23 | -36.02286 | -58.60357 | 27393 ft | 490 kts | 14° |
| 2026-05-06 14:23 | -35.99142 | -58.58744 | 26785 ft | 486 kts | 15° |
| 2026-05-06 14:23 | -35.96070 | -58.57171 | 26183 ft | 481 kts | 15° |
| 2026-05-06 14:23 | -35.92985 | -58.55594 | 25578 ft | 478 kts | 15° |
| 2026-05-06 14:24 | -35.89922 | -58.54030 | 24978 ft | 474 kts | 15° |
| 2026-05-06 14:24 | -35.86878 | -58.52475 | 24385 ft | 471 kts | 15° |
| 2026-05-06 14:24 | -35.83857 | -58.50937 | 23794 ft | 468 kts | 15° |
| 2026-05-06 14:24 | -35.80857 | -58.49411 | 23145 ft | 464 kts | 15° |
| 2026-05-06 14:25 | -35.77877 | -58.48169 | 22512 ft | 450 kts | 6° |
| 2026-05-06 14:25 | -35.74831 | -58.47847 | 21936 ft | 430 kts | 350° |
| 2026-05-06 14:25 | -35.71955 | -58.48522 | 21402 ft | 413 kts | 336° |
| 2026-05-06 14:25 | -35.69359 | -58.49905 | 20879 ft | 402 kts | 329° |
| 2026-05-06 14:26 | -35.66872 | -58.51447 | 20370 ft | 397 kts | 329° |
| 2026-05-06 14:26 | -35.64421 | -58.52977 | 19842 ft | 392 kts | 329° |
| 2026-05-06 14:26 | -35.62025 | -58.54464 | 19330 ft | 388 kts | 329° |
| 2026-05-06 14:26 | -35.59625 | -58.55945 | 18818 ft | 384 kts | 329° |
| 2026-05-06 14:27 | -35.57247 | -58.57409 | 18292 ft | 380 kts | 329° |
| 2026-05-06 14:27 | -35.54894 | -58.58855 | 17741 ft | 377 kts | 329° |
| 2026-05-06 14:27 | -35.52561 | -58.60285 | 17207 ft | 372 kts | 330° |
| 2026-05-06 14:27 | -35.50252 | -58.61698 | 16692 ft | 368 kts | 330° |
| 2026-05-06 14:28 | -35.47968 | -58.63095 | 16176 ft | 365 kts | 330° |
| 2026-05-06 14:28 | -35.45690 | -58.64487 | 15657 ft | 364 kts | 330° |
| 2026-05-06 14:28 | -35.43459 | -58.65852 | 15143 ft | 363 kts | 331° |
| 2026-05-06 14:28 | -35.41186 | -58.67233 | 14615 ft | 363 kts | 331° |
| 2026-05-06 14:29 | -35.38927 | -58.68612 | 14088 ft | 360 kts | 331° |
| 2026-05-06 14:29 | -35.36689 | -58.69977 | 13531 ft | 358 kts | 331° |
| 2026-05-06 14:29 | -35.34467 | -58.71331 | 12985 ft | 354 kts | 332° |
| 2026-05-06 14:29 | -35.32263 | -58.72672 | 12448 ft | 351 kts | 332° |
| 2026-05-06 14:30 | -35.30120 | -58.73974 | 11940 ft | 347 kts | 332° |
| 2026-05-06 14:30 | -35.27958 | -58.75289 | 11414 ft | 344 kts | 332° |
| 2026-05-06 14:30 | -35.25834 | -58.76580 | 11125 ft | 334 kts | 333° |
| 2026-05-06 14:30 | -35.23793 | -58.77817 | 11012 ft | 319 kts | 333° |
| 2026-05-06 14:31 | -35.21849 | -58.78995 | 10904 ft | 305 kts | 333° |
| 2026-05-06 14:31 | -35.19994 | -58.80119 | 10808 ft | 291 kts | 333° |
| 2026-05-06 14:31 | -35.18210 | -58.81198 | 10671 ft | 280 kts | 333° |
| 2026-05-06 14:31 | -35.16518 | -58.82223 | 10559 ft | 269 kts | 333° |
| 2026-05-06 14:32 | -35.14875 | -58.83219 | 10416 ft | 258 kts | 333° |
| 2026-05-06 14:32 | -35.13295 | -58.84176 | 10317 ft | 250 kts | 333° |
| 2026-05-06 14:32 | -35.11738 | -58.85117 | 10068 ft | 248 kts | 333° |
| 2026-05-06 14:32 | -35.10189 | -58.86055 | 9783 ft | 248 kts | 333° |
| 2026-05-06 14:33 | -35.08605 | -58.87013 | 9582 ft | 264 kts | 334° |
| 2026-05-06 14:33 | -35.06942 | -58.88018 | 9472 ft | 266 kts | 334° |
| 2026-05-06 14:33 | -35.05285 | -58.89017 | 9027 ft | 266 kts | 334° |
| 2026-05-06 14:33 | -35.03627 | -58.90019 | 8616 ft | 265 kts | 334° |
| 2026-05-06 14:34 | -35.01989 | -58.91007 | 8330 ft | 261 kts | 334° |
| 2026-05-06 14:34 | -35.00367 | -58.91985 | 8056 ft | 259 kts | 334° |
| 2026-05-06 14:34 | -34.98755 | -58.92956 | 7794 ft | 258 kts | 334° |
| 2026-05-06 14:34 | -34.97172 | -58.93910 | 7525 ft | 256 kts | 334° |
| 2026-05-06 14:35 | -34.95576 | -58.94872 | 7263 ft | 254 kts | 334° |
| 2026-05-06 14:35 | -34.93994 | -58.95825 | 6956 ft | 252 kts | 334° |
| 2026-05-06 14:35 | -34.92418 | -58.96748 | 6650 ft | 250 kts | 337° |
| 2026-05-06 14:35 | -34.90737 | -58.97247 | 6337 ft | 249 kts | 356° |
| 2026-05-06 14:36 | -34.89028 | -58.96883 | 6047 ft | 252 kts | 17° |
| 2026-05-06 14:36 | -34.87449 | -58.96055 | 5859 ft | 246 kts | 20° |
| 2026-05-06 14:36 | -34.85930 | -58.95192 | 5737 ft | 236 kts | 20° |
| 2026-05-06 14:36 | -34.84471 | -58.94370 | 5602 ft | 224 kts | 20° |
| 2026-05-06 14:37 | -34.83085 | -58.93598 | 5478 ft | 215 kts | 19° |
| 2026-05-06 14:37 | -34.81758 | -58.92869 | 5380 ft | 202 kts | 19° |
| 2026-05-06 14:37 | -34.80523 | -58.92190 | 5295 ft | 187 kts | 19° |
| 2026-05-06 14:37 | -34.79371 | -58.91559 | 5183 ft | 176 kts | 18° |
| 2026-05-06 14:38 | -34.78288 | -58.90962 | 4965 ft | 172 kts | 19° |
| 2026-05-06 14:38 | -34.77283 | -58.90157 | 4680 ft | 177 kts | 35° |
| 2026-05-06 14:38 | -34.76581 | -58.88892 | 4414 ft | 187 kts | 62° |
| 2026-05-06 14:38 | -34.76375 | -58.87324 | 4288 ft | 192 kts | 81° |
| 2026-05-06 14:39 | -34.76487 | -58.85686 | 4126 ft | 196 kts | 92° |
| 2026-05-06 14:39 | -34.76761 | -58.84061 | 4006 ft | 196 kts | 95° |
| 2026-05-06 14:39 | -34.77056 | -58.82442 | 4002 ft | 192 kts | 94° |
| 2026-05-06 14:39 | -34.77332 | -58.80910 | 4008 ft | 185 kts | 94° |
| 2026-05-06 14:40 | -34.77603 | -58.79380 | 3969 ft | 186 kts | 94° |
| 2026-05-06 14:40 | -34.77878 | -58.77835 | 3749 ft | 186 kts | 94° |
| 2026-05-06 14:40 | -34.78154 | -58.76294 | 3471 ft | 186 kts | 94° |
| 2026-05-06 14:40 | -34.78437 | -58.74737 | 3201 ft | 189 kts | 93° |
| 2026-05-06 14:41 | -34.78713 | -58.73198 | 2945 ft | 183 kts | 95° |
| 2026-05-06 14:41 | -34.78971 | -58.71744 | 2710 ft | 173 kts | 96° |
| 2026-05-06 14:41 | -34.79226 | -58.70354 | 2485 ft | 163 kts | 91° |
| 2026-05-06 14:41 | -34.79454 | -58.69061 | 2286 ft | 152 kts | 91° |
| 2026-05-06 14:42 | -34.79675 | -58.67826 | 2094 ft | 148 kts | 96° |
| 2026-05-06 14:42 | -34.79885 | -58.66574 | 1896 ft | 150 kts | 94° |
| 2026-05-06 14:42 | -34.80113 | -58.65308 | 1704 ft | 160 kts | 98° |
| 2026-05-06 14:42 | -34.80363 | -58.63944 | 1452 ft | 168 kts | 95° |
| 2026-05-06 14:43 | -34.80609 | -58.62567 | 1243 ft | 163 kts | 96° |
| 2026-05-06 14:43 | -34.80841 | -58.61280 | 1037 ft | 150 kts | 96° |
| 2026-05-06 14:43 | -34.81056 | -58.60071 | 859 ft | 143 kts | 98° |
| 2026-05-06 14:43 | -34.81264 | -58.58925 | 687 ft | 138 kts | 97° |
| 2026-05-06 14:44 | -34.81470 | -58.57759 | 500 ft | 142 kts | 97° |
| 2026-05-06 14:44 | -34.81680 | -58.56588 | 318 ft | 141 kts | 101° |
| 2026-05-06 14:44 | -34.81888 | -58.55424 | 128 ft | 138 kts | 99° |
| 2026-05-06 14:45 | -34.82220 | -58.53561 | 82 ft | 34 kts | 90° |
| 2026-05-06 14:45 | -34.82187 | -58.53509 | 81 ft | 13 kts | 22° |
| 2026-05-06 14:45 | -34.82022 | -58.53559 | 81 ft | 32 kts | 341° |
| 2026-05-06 14:45 | -34.81804 | -58.53678 | 84 ft | 39 kts | 333° |
| 2026-05-06 14:46 | -34.81592 | -58.53894 | 74 ft | 35 kts | 318° |
| 2026-05-06 14:46 | -34.81559 | -58.53930 | 72 ft | 0 kts | 317° |